Time,TemperatureF,DewpointF,PressureIn,WindDirection,WindDirectionDegrees,WindSpeedMPH,WindSpeedGustMPH,Humidity,HourlyPrecipIn,Conditions,Clouds,dailyrainin,SoftwareType,DateUTC
2013-03-29 00:07:00,57.3,53.0,30.03,WNW,296,0.0,0.0,86,0.00,,,0.00,weatherlink.com 1.10,2013-03-29 07:07:00,
2013-03-29 00:22:00,57.0,53.0,30.03,WNW,295,0.0,0.0,86,0.00,,,0.00,weatherlink.com 1.10,2013-03-29 07:22:00,
2013-03-29 00:37:00,56.7,53.0,30.03,WNW,295,0.0,0.0,86,0.00,,,0.00,weatherlink.com 1.10,2013-03-29 07:37:00,
2013-03-29 00:52:00,56.3,53.0,30.04,WNW,295,0.0,0.0,87,0.00,,,0.00,weatherlink.com 1.10,2013-03-29 07:52:00,
2013-03-29 01:07:00,56.1,52.0,30.04,WNW,295,0.0,0.0,87,0.00,,,0.00,weatherlink.com 1.10,2013-03-29 08:07:00,
2013-03-29 01:22:00,55.6,52.0,30.04,WNW,295,0.0,0.0,88,0.00,,,0.00,weatherlink.com 1.10,2013-03-29 08:22:00,
2013-03-29 01:37:00,55.8,52.0,30.04,WNW,295,0.0,0.0,88,0.00,,,0.00,weatherlink.com 1.10,2013-03-29 08:37:00,
2013-03-29 01:52:00,56.0,53.0,30.04,WNW,295,0.0,0.0,88,0.00,,,0.00,weatherlink.com 1.10,2013-03-29 08:52:00,
2013-03-29 02:07:00,56.0,53.0,30.04,WNW,296,0.0,0.0,88,0.00,,,0.00,weatherlink.com 1.10,2013-03-29 09:07:00,
2013-03-29 02:22:00,56.1,52.0,30.04,WNW,297,0.0,1.0,87,0.00,,,0.00,weatherlink.com 1.10,2013-03-29 09:22:00,
2013-03-29 02:37:00,56.2,53.0,30.04,WNW,297,0.0,0.0,88,0.00,,,0.00,weatherlink.com 1.10,2013-03-29 09:37:00,
2013-03-29 02:52:00,56.6,53.0,30.03,WNW,297,0.0,0.0,88,0.00,,,0.00,weatherlink.com 1.10,2013-03-29 09:52:00,
2013-03-29 03:07:00,57.2,54.0,30.03,WNW,297,0.0,1.0,88,0.00,,,0.00,weatherlink.com 1.10,2013-03-29 10:07:00,
2013-03-29 03:22:00,57.7,54.0,30.02,SE,136,0.0,3.0,88,0.00,,,0.00,weatherlink.com 1.10,2013-03-29 10:22:00,
2013-03-29 03:37:00,58.1,55.0,30.02,SE,135,0.0,2.0,88,0.00,,,0.00,weatherlink.com 1.10,2013-03-29 10:37:00,
2013-03-29 03:52:00,58.4,55.0,30.02,ESE,109,3.0,3.0,87,0.00,,,0.00,weatherlink.com 1.10,2013-03-29 10:52:00,
2013-03-29 04:07:00,58.6,55.0,30.02,ESE,122,2.0,2.0,87,0.00,,,0.00,weatherlink.com 1.10,2013-03-29 11:07:00,
2013-03-29 04:22:00,58.6,55.0,30.02,SE,127,1.0,4.0,87,0.00,,,0.00,weatherlink.com 1.10,2013-03-29 11:22:00,
2013-03-29 04:37:00,58.7,55.0,30.02,East,82,1.0,2.0,87,0.00,,,0.00,weatherlink.com 1.10,2013-03-29 11:37:00,
2013-03-29 04:52:00,58.9,55.0,30.02,SE,132,1.0,3.0,86,0.00,,,0.00,weatherlink.com 1.10,2013-03-29 11:52:00,
2013-03-29 05:07:00,59.0,55.0,30.03,SSW,212,0.0,3.0,86,0.00,,,0.00,weatherlink.com 1.10,2013-03-29 12:07:00,
2013-03-29 05:22:00,59.0,55.0,30.03,WSW,252,0.0,4.0,86,0.00,,,0.00,weatherlink.com 1.10,2013-03-29 12:22:00,
2013-03-29 05:37:00,59.0,55.0,30.03,WSW,251,0.0,3.0,86,0.00,,,0.00,weatherlink.com 1.10,2013-03-29 12:37:00,
2013-03-29 05:52:00,58.9,55.0,30.03,SW,224,1.0,1.0,86,0.00,,,0.00,weatherlink.com 1.10,2013-03-29 12:52:00,
2013-03-29 06:07:00,58.8,55.0,30.04,SW,224,1.0,2.0,86,0.00,,,0.00,weatherlink.com 1.10,2013-03-29 13:07:00,
2013-03-29 06:22:00,58.8,55.0,30.05,SW,231,0.0,2.0,86,0.00,,,0.00,weatherlink.com 1.10,2013-03-29 13:22:00,
2013-03-29 06:37:00,58.8,55.0,30.05,SW,233,0.0,1.0,86,0.00,,,0.00,weatherlink.com 1.10,2013-03-29 13:37:00,
2013-03-29 06:52:00,58.7,55.0,30.05,SSW,203,0.0,1.0,86,0.00,,,0.00,weatherlink.com 1.10,2013-03-29 13:52:00,
2013-03-29 07:07:00,58.7,55.0,30.05,South,188,1.0,2.0,86,0.00,,,0.00,weatherlink.com 1.10,2013-03-29 14:07:00,
2013-03-29 07:22:00,58.7,54.0,30.06,ESE,117,1.0,3.0,85,0.00,,,0.00,weatherlink.com 1.10,2013-03-29 14:22:00,
2013-03-29 07:38:00,58.7,54.0,30.06,SW,224,0.0,3.0,85,0.00,,,0.00,weatherlink.com 1.10,2013-03-29 14:38:00,
2013-03-29 07:53:00,58.7,54.0,30.07,North,349,0.0,2.0,85,0.00,,,0.00,weatherlink.com 1.10,2013-03-29 14:53:00,
2013-03-29 08:08:00,59.0,55.0,30.06,NNW,329,1.0,3.0,85,0.00,,,0.00,weatherlink.com 1.10,2013-03-29 15:08:00,
2013-03-29 08:23:00,59.1,54.0,30.07,WNW,284,0.0,2.0,84,0.00,,,0.00,weatherlink.com 1.10,2013-03-29 15:23:00,
2013-03-29 08:38:00,59.6,55.0,30.06,NW,315,0.0,3.0,84,0.00,,,0.00,weatherlink.com 1.10,2013-03-29 15:38:00,
2013-03-29 08:53:00,59.8,55.0,30.06,NNW,328,0.0,4.0,83,0.00,,,0.00,weatherlink.com 1.10,2013-03-29 15:53:00,
2013-03-29 09:08:00,60.4,55.0,30.07,NNW,333,0.0,4.0,82,0.00,,,0.00,weatherlink.com 1.10,2013-03-29 16:08:00,
2013-03-29 09:23:00,60.6,55.0,30.07,North,1,0.0,4.0,81,0.00,,,0.00,weatherlink.com 1.10,2013-03-29 16:23:00,
2013-03-29 09:38:00,61.9,55.0,30.07,ENE,69,1.0,3.0,78,0.00,,,0.00,weatherlink.com 1.10,2013-03-29 16:38:00,
2013-03-29 09:53:00,62.9,55.0,30.07,ESE,123,1.0,4.0,76,0.00,,,0.00,weatherlink.com 1.10,2013-03-29 16:53:00,
2013-03-29 10:08:00,64.5,56.0,30.06,WSW,250,0.0,3.0,73,0.00,,,0.00,weatherlink.com 1.10,2013-03-29 17:08:00,
2013-03-29 10:23:00,65.1,56.0,30.07,NE,34,0.0,3.0,72,0.00,,,0.00,weatherlink.com 1.10,2013-03-29 17:23:00,
2013-03-29 10:38:00,66.7,56.0,30.07,West,264,2.0,2.0,69,0.00,,,0.00,weatherlink.com 1.10,2013-03-29 17:38:00,
2013-03-29 10:53:00,66.6,55.0,30.07,West,278,1.0,8.0,67,0.00,,,0.00,weatherlink.com 1.10,2013-03-29 17:53:00,
2013-03-29 11:08:00,68.4,57.0,30.07,WSW,244,2.0,5.0,66,0.00,,,0.00,weatherlink.com 1.10,2013-03-29 18:08:00,
2013-03-29 11:23:00,68.3,57.0,30.07,SW,227,4.0,8.0,67,0.00,,,0.00,weatherlink.com 1.10,2013-03-29 18:23:00,
2013-03-29 11:38:00,68.7,57.0,30.07,SW,220,5.0,8.0,66,0.00,,,0.00,weatherlink.com 1.10,2013-03-29 18:38:00,
2013-03-29 11:53:00,67.6,57.0,30.07,SSE,153,5.0,9.0,68,0.00,,,0.00,weatherlink.com 1.10,2013-03-29 18:53:00,
2013-03-29 12:08:00,67.4,57.0,30.07,SSW,198,3.0,7.0,69,0.00,,,0.00,weatherlink.com 1.10,2013-03-29 19:08:00,
2013-03-29 12:23:00,68.9,57.0,30.06,SW,220,3.0,8.0,65,0.00,,,0.00,weatherlink.com 1.10,2013-03-29 19:23:00,
2013-03-29 12:38:00,69.6,57.0,30.06,SSE,149,3.0,8.0,65,0.00,,,0.00,weatherlink.com 1.10,2013-03-29 19:38:00,
2013-03-29 12:53:00,68.7,56.0,30.05,WSW,255,3.0,6.0,65,0.00,,,0.00,weatherlink.com 1.10,2013-03-29 19:53:00,
2013-03-29 13:08:00,68.5,57.0,30.05,SE,135,5.0,9.0,66,0.00,,,0.00,weatherlink.com 1.10,2013-03-29 20:08:00,
2013-03-29 13:23:00,68.6,56.0,30.04,SW,215,4.0,8.0,65,0.00,,,0.00,weatherlink.com 1.10,2013-03-29 20:23:00,
2013-03-29 13:38:00,69.3,57.0,30.04,WSW,245,9.0,9.0,65,0.00,,,0.00,weatherlink.com 1.10,2013-03-29 20:38:00,
2013-03-29 13:55:00,69.0,57.0,30.03,SE,134,3.0,9.0,65,0.00,,,0.00,weatherlink.com 1.10,2013-03-29 20:55:00,
2013-03-29 14:08:00,68.1,56.0,30.03,SE,130,3.0,9.0,66,0.00,,,0.00,weatherlink.com 1.10,2013-03-29 21:08:00,
2013-03-29 14:23:00,67.3,56.0,30.03,WSW,247,7.0,11.0,67,0.00,,,0.00,weatherlink.com 1.10,2013-03-29 21:23:00,
2013-03-29 14:38:00,66.8,56.0,30.02,SW,234,2.0,10.0,69,0.00,,,0.00,weatherlink.com 1.10,2013-03-29 21:38:00,
2013-03-29 14:53:00,66.7,56.0,30.02,SW,231,6.0,10.0,69,0.00,,,0.00,weatherlink.com 1.10,2013-03-29 21:53:00,
2013-03-29 15:08:00,68.4,57.0,30.02,SE,146,1.0,8.0,67,0.00,,,0.00,weatherlink.com 1.10,2013-03-29 22:08:00,
2013-03-29 15:23:00,70.4,57.0,30.01,WSW,247,3.0,9.0,63,0.00,,,0.00,weatherlink.com 1.10,2013-03-29 22:23:00,
2013-03-29 15:38:00,71.6,57.0,30.01,SSW,199,2.0,7.0,60,0.00,,,0.00,weatherlink.com 1.10,2013-03-29 22:38:00,
2013-03-29 15:53:00,72.4,56.0,30.01,West,259,2.0,6.0,57,0.00,,,0.00,weatherlink.com 1.10,2013-03-29 22:53:00,
2013-03-29 16:08:00,72.5,56.0,30.01,West,277,3.0,6.0,56,0.00,,,0.00,weatherlink.com 1.10,2013-03-29 23:08:00,
2013-03-29 16:23:00,73.5,56.0,30.00,WSW,251,3.0,8.0,54,0.00,,,0.00,weatherlink.com 1.10,2013-03-29 23:23:00,
2013-03-29 16:38:00,72.3,55.0,30.00,WSW,257,4.0,5.0,55,0.00,,,0.00,weatherlink.com 1.10,2013-03-29 23:38:00,
2013-03-29 16:53:00,71.7,55.0,30.00,West,280,3.0,5.0,56,0.00,,,0.00,weatherlink.com 1.10,2013-03-29 23:53:00,
2013-03-29 17:10:00,70.9,55.0,30.00,SW,236,2.0,5.0,57,0.00,,,0.00,weatherlink.com 1.10,2013-03-30 00:10:00,
2013-03-29 17:23:00,69.5,54.0,30.00,West,259,2.0,6.0,58,0.00,,,0.00,weatherlink.com 1.10,2013-03-30 00:23:00,
2013-03-29 17:39:00,68.4,53.0,30.01,WNW,301,4.0,7.0,59,0.00,,,0.00,weatherlink.com 1.10,2013-03-30 00:39:00,
2013-03-29 17:54:00,67.1,54.0,30.00,West,280,8.0,8.0,64,0.00,,,0.00,weatherlink.com 1.10,2013-03-30 00:54:00,
2013-03-29 18:09:00,64.2,54.0,30.01,WNW,285,3.0,9.0,70,0.00,,,0.00,weatherlink.com 1.10,2013-03-30 01:09:00,
2013-03-29 18:24:00,62.8,54.0,30.02,WSW,255,3.0,6.0,72,0.00,,,0.00,weatherlink.com 1.10,2013-03-30 01:24:00,
2013-03-29 18:39:00,61.9,54.0,30.03,WSW,254,2.0,6.0,74,0.00,,,0.00,weatherlink.com 1.10,2013-03-30 01:39:00,
2013-03-29 18:54:00,60.9,54.0,30.03,WSW,249,5.0,8.0,77,0.00,,,0.00,weatherlink.com 1.10,2013-03-30 01:54:00,
2013-03-29 19:09:00,60.1,54.0,30.03,WSW,247,4.0,6.0,79,0.00,,,0.00,weatherlink.com 1.10,2013-03-30 02:09:00,
2013-03-29 19:24:00,59.8,54.0,30.04,West,268,2.0,5.0,81,0.00,,,0.00,weatherlink.com 1.10,2013-03-30 02:24:00,
2013-03-29 19:39:00,59.4,54.0,30.05,WSW,252,2.0,4.0,81,0.00,,,0.00,weatherlink.com 1.10,2013-03-30 02:39:00,
2013-03-29 19:54:00,59.3,54.0,30.05,NW,304,0.0,3.0,82,0.00,,,0.00,weatherlink.com 1.10,2013-03-30 02:54:00,
2013-03-29 20:09:00,59.2,54.0,30.05,WNW,283,0.0,2.0,82,0.00,,,0.00,weatherlink.com 1.10,2013-03-30 03:09:00,
2013-03-29 20:24:00,59.1,54.0,30.07,NW,321,0.0,0.0,82,0.00,,,0.00,weatherlink.com 1.10,2013-03-30 03:24:00,
2013-03-29 20:39:00,59.0,54.0,30.07,NW,321,0.0,0.0,83,0.00,,,0.00,weatherlink.com 1.10,2013-03-30 03:39:00,
2013-03-29 20:54:00,59.1,54.0,30.06,NNW,329,2.0,3.0,83,0.00,,,0.00,weatherlink.com 1.10,2013-03-30 03:54:00,
2013-03-29 21:09:00,59.5,54.0,30.07,ESE,114,2.0,2.0,82,0.00,,,0.00,weatherlink.com 1.10,2013-03-30 04:09:00,
2013-03-29 21:24:00,59.7,54.0,30.07,ESE,109,3.0,3.0,82,0.00,,,0.00,weatherlink.com 1.10,2013-03-30 04:24:00,
2013-03-29 21:39:00,59.1,54.0,30.08,ESE,120,2.0,6.0,83,0.00,,,0.00,weatherlink.com 1.10,2013-03-30 04:39:00,
2013-03-29 21:54:00,58.3,54.0,30.07,East,98,1.0,6.0,85,0.00,,,0.00,weatherlink.com 1.10,2013-03-30 04:54:00,
2013-03-29 22:09:00,57.9,54.0,30.07,SE,130,0.0,4.0,85,0.00,,,0.00,weatherlink.com 1.10,2013-03-30 05:09:00,
2013-03-29 22:24:00,57.8,54.0,30.08,SE,139,1.0,4.0,86,0.00,,,0.00,weatherlink.com 1.10,2013-03-30 05:24:00,
2013-03-29 22:39:00,57.8,54.0,30.08,WSW,257,0.0,2.0,86,0.00,,,0.00,weatherlink.com 1.10,2013-03-30 05:39:00,
2013-03-29 22:54:00,57.8,54.0,30.07,North,3,0.0,1.0,86,0.00,,,0.00,weatherlink.com 1.10,2013-03-30 05:54:00,
2013-03-29 23:09:00,57.9,54.0,30.08,WSW,252,0.0,1.0,86,0.00,,,0.00,weatherlink.com 1.10,2013-03-30 06:09:00,
2013-03-29 23:24:00,58.2,54.0,30.08,WSW,239,1.0,3.0,86,0.00,,,0.00,weatherlink.com 1.10,2013-03-30 06:24:00,
2013-03-29 23:39:00,58.3,54.0,30.07,WSW,245,0.0,1.0,85,0.00,,,0.00,weatherlink.com 1.10,2013-03-30 06:39:00,
2013-03-29 23:54:00,58.4,54.0,30.08,SW,218,0.0,2.0,86,0.00,,,0.00,weatherlink.com 1.10,2013-03-30 06:54:00,